Time;durP1;ratioP1;P1;durP2;ratioP2;P2;SDS_P1;SDS_P2;PMS_P1;PMS_P2;Temp;Humidity;BMP_temperature;BMP_pressure;BME280_temperature;BME280_humidity;BME280_pressure;Samples;Min_cycle;Max_cycle;Signal;HPM_P1;HPM_P2
2022/04/18 00:01:56;;;;;;;4.07;1.80;;;;;;;10.35;34.22;100637.47;5097033;28;20402;-78
2022/04/18 00:04:21;;;;;;;4.43;1.90;;;;;;;10.39;33.41;100628.78;5097592;28;20058;-77
2022/04/18 00:06:47;;;;;;;4.18;1.40;;;;;;;10.43;33.39;100630.03;5097643;28;20046;-77
2022/04/18 00:09:12;;;;;;;4.87;1.67;;;;;;;10.44;33.68;100631.72;5097015;28;20031;-77
2022/04/18 00:11:37;;;;;;;4.60;1.42;;;;;;;10.41;33.10;100625.88;5097549;28;20031;-77
2022/04/18 00:14:03;;;;;;;3.00;1.00;;;;;;;10.43;33.02;100624.66;5098898;28;20043;-77
2022/04/18 00:16:28;;;;;;;4.57;1.33;;;;;;;10.40;33.17;100616.97;5098777;28;20070;-77
2022/04/18 00:18:54;;;;;;;4.22;1.38;;;;;;;10.39;33.70;100625.28;5098000;28;20028;-77
2022/04/18 00:21:20;;;;;;;4.25;1.80;;;;;;;10.33;33.60;100620.66;5096612;28;20024;-77
2022/04/18 00:23:45;;;;;;;;;;;;;;;10.40;34.08;100616.97;5100030;28;20036;-77
2022/04/18 00:26:11;;;;;;;4.30;1.75;;;;;;;10.41;33.77;100612.41;5097191;28;19922;-77
2022/04/18 00:28:36;;;;;;;4.00;1.73;;;;;;;10.34;33.38;100616.94;5098700;28;20035;-77
2022/04/18 00:31:02;;;;;;;4.00;1.50;;;;;;;10.28;33.40;100620.44;5098871;28;20036;-77
2022/04/18 00:33:27;;;;;;;4.82;1.50;;;;;;;10.31;33.44;100617.34;5098500;28;20028;-77
2022/04/18 00:35:53;;;;;;;3.50;1.40;;;;;;;10.30;33.92;100612.97;5097703;28;20111;-77
2022/04/18 00:38:19;;;;;;;4.18;1.42;;;;;;;10.20;33.62;100617.91;5097260;28;20258;-78
2022/04/18 00:40:44;;;;;;;3.72;1.55;;;;;;;10.30;33.45;100608.44;5098334;28;20062;-77
2022/04/18 00:43:10;;;;;;;2.40;1.17;;;;;;;10.40;33.39;100608.06;5096591;28;20087;-77
2022/04/18 00:45:35;;;;;;;3.67;1.20;;;;;;;10.25;33.34;100605.50;5097912;28;20411;-78
2022/04/18 00:48:02;;;;;;;4.27;1.20;;;;;;;10.26;33.72;100615.22;5097189;28;20032;-77
2022/04/18 00:50:28;;;;;;;;;;;;;;;10.38;33.42;100604.75;5100651;28;20250;-77
2022/04/18 00:52:54;;;;;;;4.25;1.40;;;;;;;10.40;33.38;100603.50;5097753;28;20343;-77
2022/04/18 00:55:20;;;;;;;3.38;1.48;;;;;;;10.47;33.37;100606.25;5099114;28;20390;-78
2022/04/18 00:57:47;;;;;;;3.58;1.30;;;;;;;10.40;33.82;100598.09;5096220;28;20047;-78
2022/04/18 01:00:13;;;;;;;5.78;1.35;;;;;;;10.40;33.19;100597.28;5094877;28;20036;-78
2022/04/18 01:02:39;;;;;;;3.15;1.20;;;;;;;10.37;33.58;100593.16;5095301;28;20028;-78
2022/04/18 01:05:05;;;;;;;3.90;1.40;;;;;;;10.34;33.24;100590.84;5096618;28;20028;-78
2022/04/18 01:07:31;;;;;;;3.95;1.35;;;;;;;10.31;33.42;100591.25;5095764;28;20096;-79
2022/04/18 01:09:56;;;;;;;;;;;;;;;10.32;33.61;100586.69;5096841;28;20036;-77
2022/04/18 01:12:22;;;;;;;2.90;1.00;;;;;;;10.28;33.92;100591.63;5097769;28;19979;-78
2022/04/18 01:14:48;;;;;;;3.10;1.30;;;;;;;10.25;33.68;100583.94;5098662;28;20032;-78
2022/04/18 01:17:15;;;;;;;2.45;1.00;;;;;;;10.27;33.63;100586.44;5099774;28;20024;-78
2022/04/18 01:19:41;;;;;;;3.22;1.10;;;;;;;10.21;33.84;100592.66;5099338;28;20046;-79
2022/04/18 01:22:12;;;;;;;3.03;1.10;;;;;;;10.21;33.81;100593.44;5100230;28;20027;-78
2022/04/18 01:30:07;;;;;;;3.40;1.33;;;;;;;10.16;34.24;100584.28;5101172;28;20028;-78
2022/04/18 01:32:32;;;;;;;2.10;0.98;;;;;;;10.13;34.62;100581.97;5097391;28;20035;-78
2022/04/18 01:34:57;;;;;;;3.60;1.20;;;;;;;10.05;34.64;100574.88;5094550;28;20044;-78
2022/04/18 01:37:23;;;;;;;2.70;0.83;;;;;;;10.02;34.67;100572.63;5093804;28;20446;-78
2022/04/18 01:39:49;;;;;;;3.35;1.27;;;;;;;10.00;34.30;100575.50;5094315;28;20725;-77
2022/04/18 01:42:14;;;;;;;2.10;0.85;;;;;;;10.01;34.74;100581.72;5093026;28;20032;-77
2022/04/18 01:44:40;;;;;;;2.30;0.90;;;;;;;9.93;35.47;100577.31;5094377;28;20375;-77
2022/04/18 01:47:05;;;;;;;4.43;1.42;;;;;;;10.03;35.00;100582.34;5094809;28;20030;-77
2022/04/18 01:49:31;;;;;;;2.40;0.93;;;;;;;10.02;34.86;100576.13;5094080;28;20119;-77
2022/04/18 01:51:56;;;;;;;3.30;1.33;;;;;;;10.01;35.02;100569.09;5095837;28;20266;-77
2022/04/18 01:54:22;;;;;;;2.70;1.10;;;;;;;9.93;34.72;100580.00;5096817;28;20056;-77
2022/04/18 01:56:48;;;;;;;2.97;1.08;;;;;;;9.96;34.84;100573.38;5096972;28;20493;-77
2022/04/18 01:59:13;;;;;;;2.13;0.80;;;;;;;9.76;35.65;100567.88;5096984;28;20032;-77
2022/04/18 02:01:38;;;;;;;3.47;1.43;;;;;;;9.81;35.20;100562.75;5096640;28;20036;-78
2022/04/18 02:04:03;;;;;;;3.00;1.00;;;;;;;9.73;35.41;100563.72;5096692;28;20030;-78
2022/04/18 02:06:29;;;;;;;3.20;1.23;;;;;;;9.78;35.58;100556.91;5097327;28;20378;-77
2022/04/18 02:08:54;;;;;;;2.43;0.80;;;;;;;9.97;34.93;100558.91;5097120;28;20474;-78
2022/04/18 02:11:20;;;;;;;3.00;1.03;;;;;;;10.00;35.06;100556.66;5096811;28;20035;-78
2022/04/18 02:13:46;;;;;;;3.20;1.10;;;;;;;10.00;34.79;100563.91;5096713;28;20051;-78
2022/04/18 02:16:11;;;;;;;3.25;1.05;;;;;;;9.86;35.01;100557.56;5096676;28;20040;-77
2022/04/18 02:18:37;;;;;;;2.47;0.83;;;;;;;9.93;35.21;100555.78;5096761;28;20470;-77
2022/04/18 02:21:02;;;;;;;3.97;1.10;;;;;;;9.99;34.75;100557.69;5096952;28;20035;-78
2022/04/18 02:23:28;;;;;;;2.20;0.80;;;;;;;9.96;34.65;100550.00;5095522;28;20474;-77
2022/04/18 02:25:53;;;;;;;2.40;0.80;;;;;;;9.86;35.19;100545.97;5096408;28;20032;-77
2022/04/18 02:28:18;;;;;;;2.70;1.10;;;;;;;9.85;35.25;100547.03;5096433;28;20020;-78
2022/04/18 02:30:44;;;;;;;2.53;1.03;;;;;;;9.83;35.53;100549.91;5096399;28;20028;-78
2022/04/18 02:33:09;;;;;;;3.53;1.00;;;;;;;9.68;35.94;100541.94;5095557;28;20050;-78
2022/04/18 02:35:34;;;;;;;2.30;0.80;;;;;;;9.69;35.79;100548.13;5096780;28;20039;-78
2022/04/18 02:38:00;;;;;;;2.80;0.80;;;;;;;9.68;36.11;100544.63;5096298;28;20028;-78
2022/04/18 02:40:25;;;;;;;3.70;0.87;;;;;;;9.75;36.19;100539.28;5096780;28;20270;-78
2022/04/18 02:42:50;;;;;;;1.93;0.70;;;;;;;9.82;36.57;100539.34;5096497;28;20050;-77
2022/04/18 02:45:20;;;;;;;3.37;1.00;;;;;;;9.57;36.76;100541.66;5096138;28;20073;-78
2022/04/18 02:47:46;;;;;;;7.15;1.00;;;;;;;9.58;36.34;100530.69;5096333;28;20451;-77
2022/04/18 02:50:12;;;;;;;3.33;1.02;;;;;;;9.60;36.76;100530.50;5094674;28;20382;-78
2022/04/18 02:52:37;;;;;;;3.28;0.93;;;;;;;9.58;36.69;100532.56;5096210;28;20036;-78
2022/04/18 02:55:04;;;;;;;2.63;0.80;;;;;;;9.62;36.90;100520.38;5096328;28;20024;-78
2022/04/18 02:57:29;;;;;;;2.42;1.02;;;;;;;9.56;37.03;100518.47;5096132;28;20505;-77
2022/04/18 02:59:55;;;;;;;6.37;1.20;;;;;;;9.52;37.53;100512.63;5094602;28;20028;-78
2022/04/18 03:02:20;;;;;;;2.63;1.10;;;;;;;9.52;37.65;100509.94;5095954;28;20024;-78
2022/04/18 03:04:45;;;;;;;3.10;0.90;;;;;;;9.56;37.86;100505.00;5095549;28;20463;-77
2022/04/18 03:07:11;;;;;;;1.97;0.80;;;;;;;9.61;37.41;100505.25;5094767;28;20039;-77
2022/04/18 03:09:36;;;;;;;2.23;1.00;;;;;;;9.59;37.62;100501.94;5095474;28;20028;-77
2022/04/18 03:12:06;;;;;;;3.23;1.37;;;;;;;9.54;37.98;100499.81;5095282;28;20016;-77
2022/04/18 03:14:32;;;;;;;2.90;0.90;;;;;;;9.64;37.75;100499.50;5095251;28;20032;-77
2022/04/18 03:16:57;;;;;;;;;;;;;;;9.62;37.53;100496.16;5095645;28;20561;-77
2022/04/18 03:19:24;;;;;;;2.22;0.82;;;;;;;9.61;37.75;100500.72;5095343;28;19945;-77
2022/04/18 03:21:49;;;;;;;2.88;0.98;;;;;;;9.54;38.44;100499.81;5095459;28;20363;-77
2022/04/18 03:24:14;;;;;;;3.17;1.13;;;;;;;9.52;38.41;100501.03;5095282;28;20494;-77
2022/04/18 03:26:40;;;;;;;2.73;1.17;;;;;;;9.52;38.19;100496.50;5095934;28;20063;-80
2022/04/18 03:29:05;;;;;;;2.23;0.83;;;;;;;9.41;38.60;100497.03;5097398;28;20031;-79
2022/04/18 03:31:31;;;;;;;5.47;1.30;;;;;;;9.41;38.71;100488.97;5096375;28;20512;-79
2022/04/18 03:33:56;;;;;;;3.03;1.23;;;;;;;9.38;39.09;100495.56;5097157;28;20036;-80
2022/04/18 03:41:49;;;;;;;3.42;1.02;;;;;;;9.51;39.39;100499.38;5096444;28;20170;-80
2022/04/18 03:44:14;;;;;;;3.40;0.97;;;;;;;9.43;39.63;100496.84;5097312;28;20470;-79
2022/04/18 03:46:39;;;;;;;3.03;0.93;;;;;;;9.45;39.34;100497.50;5097055;28;20020;-79
2022/04/18 03:49:05;;;;;;;2.13;0.90;;;;;;;9.46;39.19;100499.16;5095938;28;20028;-79
2022/04/18 03:51:30;;;;;;;3.10;0.93;;;;;;;9.45;39.98;100497.50;5095355;28;20364;-79
2022/04/18 03:53:55;;;;;;;2.30;0.70;;;;;;;9.36;39.68;100494.09;5094078;28;20462;-78
2022/04/18 03:56:20;;;;;;;3.13;1.07;;;;;;;9.36;40.30;100496.78;5093883;28;20029;-78
2022/04/18 03:58:46;;;;;;;3.30;0.90;;;;;;;9.35;40.33;100490.59;5095131;28;20466;-79
2022/04/18 04:01:11;;;;;;;2.03;0.80;;;;;;;9.35;40.61;100490.59;5095955;28;20028;-78
2022/04/18 04:03:36;;;;;;;3.63;1.50;;;;;;;9.26;40.33;100497.13;5095558;28;20059;-79
2022/04/18 04:06:02;;;;;;;3.20;1.00;;;;;;;9.20;41.59;100489.00;5094998;28;20755;-78
2022/04/18 04:08:28;;;;;;;2.37;1.00;;;;;;;9.21;40.78;100490.69;5095518;28;20063;-78
2022/04/18 04:10:54;;;;;;;2.83;1.08;;;;;;;9.20;40.39;100495.22;5095734;28;20055;-78
2022/04/18 04:13:19;;;;;;;3.00;1.00;;;;;;;9.14;40.72;100504.06;5096006;28;20043;-78
2022/04/18 04:15:45;;;;;;;3.15;1.15;;;;;;;9.06;40.89;100498.81;5097253;28;20028;-78
2022/04/18 04:18:10;;;;;;;2.53;0.98;;;;;;;8.96;41.35;100498.31;5105172;28;20036;-81
2022/04/18 04:20:36;;;;;;;2.90;1.00;;;;;;;9.03;41.44;100491.97;5105265;28;20081;-82
2022/04/18 04:23:02;;;;;;;3.42;1.10;;;;;;;8.97;41.40;100490.06;5108043;28;20036;-81
2022/04/18 04:25:27;;;;;;;3.22;1.08;;;;;;;8.94;42.22;100493.16;5112601;28;20066;-81
2022/04/18 04:27:52;;;;;;;1.73;0.73;;;;;;;8.92;42.28;100495.19;5109014;28;20048;-81
2022/04/18 04:30:18;;;;;;;3.63;1.00;;;;;;;8.85;42.04;100501.50;5109906;28;20032;-81
2022/04/18 04:32:43;;;;;;;2.70;1.17;;;;;;;8.79;42.15;100494.22;5114181;28;20024;-81
2022/04/18 04:35:08;;;;;;;3.13;1.17;;;;;;;8.75;42.58;100492.94;5105963;28;20301;-80
2022/04/18 04:37:33;;;;;;;2.10;0.80;;;;;;;8.72;42.22;100496.00;5105754;28;20454;-81
2022/04/18 04:39:59;;;;;;;2.87;1.07;;;;;;;8.62;42.78;100497.13;5106329;28;20048;-81
2022/04/18 04:42:24;;;;;;;3.77;1.27;;;;;;;8.64;43.15;100492.41;5104529;28;20036;-81
2022/04/18 04:44:49;;;;;;;2.60;0.97;;;;;;;8.64;43.05;100500.47;5103465;28;20029;-81
2022/04/18 04:47:15;;;;;;;3.90;1.17;;;;;;;8.66;43.50;100492.22;5104854;28;20030;-80
2022/04/18 04:49:40;;;;;;;2.43;1.00;;;;;;;8.67;43.09;100497.41;5102216;28;20115;-80
2022/04/18 04:52:06;;;;;;;3.53;1.20;;;;;;;8.70;43.15;100496.19;5099701;28;20353;-80
2022/04/18 04:54:35;;;;;;;4.00;1.20;;;;;;;8.72;42.61;100499.53;5104247;28;20099;-80
2022/04/18 04:57:00;;;;;;;2.90;1.10;;;;;;;8.73;42.74;100498.50;5102574;28;20036;-81
2022/04/18 04:59:26;;;;;;;2.70;1.15;;;;;;;8.68;42.76;100506.31;5104024;28;20025;-80
2022/04/18 05:01:51;;;;;;;2.30;0.90;;;;;;;8.68;42.79;100506.31;5104409;28;20432;-79
2022/04/18 05:04:16;;;;;;;3.50;1.23;;;;;;;8.74;42.56;100510.94;5101592;28;20028;-80
2022/04/18 05:06:42;;;;;;;4.38;1.10;;;;;;;8.78;42.64;100508.69;5097123;28;20120;-78
2022/04/18 05:09:07;;;;;;;3.65;0.93;;;;;;;8.79;43.07;100516.53;5093935;28;20035;-78
2022/04/18 05:11:33;;;;;;;2.73;0.87;;;;;;;8.83;42.66;100517.00;5094011;28;20028;-78
2022/04/18 05:13:58;;;;;;;3.97;1.10;;;;;;;8.86;43.27;100517.44;5093807;28;20027;-78
2022/04/18 05:16:24;;;;;;;2.92;1.10;;;;;;;8.91;43.93;100512.34;5093803;28;20028;-78
2022/04/18 05:18:49;;;;;;;3.63;1.10;;;;;;;9.11;43.95;100515.22;5094601;28;20032;-78
2022/04/18 05:21:15;;;;;;;4.07;0.87;;;;;;;9.07;42.74;100513.94;5096004;28;20550;-77
2022/04/18 05:23:40;;;;;;;2.73;1.20;;;;;;;9.05;43.34;100524.88;5095522;28;20747;-78
2022/04/18 05:26:05;;;;;;;2.47;0.90;;;;;;;9.12;44.24;100519.56;5098072;28;20039;-77
2022/04/18 05:28:31;;;;;;;2.27;1.07;;;;;;;9.18;43.68;100520.63;5103511;28;20073;-77
2022/04/18 05:30:57;;;;;;;4.80;1.93;;;;;;;9.17;44.25;100522.50;5102195;28;20352;-77
2022/04/18 05:33:23;;;;;;;3.15;0.90;;;;;;;9.24;43.58;100526.06;5099218;28;20427;-78
2022/04/18 05:35:49;;;;;;;3.38;1.13;;;;;;;9.04;44.52;100530.44;5099600;28;20032;-77
2022/04/18 05:38:14;;;;;;;2.58;1.00;;;;;;;9.09;44.77;100524.50;5098407;28;20481;-77
2022/04/18 05:40:41;;;;;;;4.50;1.20;;;;;;;9.12;45.13;100524.94;5099095;28;20107;-78
2022/04/18 05:43:08;;;;;;;2.90;1.00;;;;;;;9.18;44.83;100521.47;5098625;28;20031;-77
2022/04/18 05:45:34;;;;;;;2.30;1.17;;;;;;;9.22;45.30;100528.13;5098212;28;20378;-77
2022/04/18 05:47:59;;;;;;;3.05;1.20;;;;;;;9.26;45.12;100521.34;5098022;28;20036;-78
2022/04/18 05:50:24;;;;;;;3.43;1.10;;;;;;;9.30;44.61;100521.78;5096965;28;20032;-77
2022/04/18 05:52:50;;;;;;;3.13;1.00;;;;;;;9.28;45.90;100523.84;5097652;28;20028;-78
2022/04/18 05:55:15;;;;;;;3.10;1.13;;;;;;;9.33;46.15;100524.91;5099000;28;20111;-77
2022/04/18 05:57:40;;;;;;;3.77;1.20;;;;;;;9.34;44.90;100526.56;5098789;28;20028;-78
2022/04/18 06:00:06;;;;;;;4.47;1.40;;;;;;;9.50;45.99;100524.63;5098917;28;20568;-78
2022/04/18 06:02:31;;;;;;;2.08;0.95;;;;;;;9.43;44.79;100529.13;5098623;28;20487;-78
2022/04/18 06:04:57;;;;;;;8.15;1.13;;;;;;;9.50;44.39;100528.13;5097454;28;20032;-78
2022/04/18 06:07:22;;;;;;;2.60;1.00;;;;;;;9.62;42.88;100526.59;5097589;28;20374;-77
2022/04/18 06:09:47;;;;;;;1.97;0.90;;;;;;;9.62;43.31;100529.28;5097348;28;20028;-78
2022/04/18 06:12:13;;;;;;;3.47;1.23;;;;;;;9.78;42.64;100533.53;5097508;28;20039;-77
2022/04/18 06:14:38;;;;;;;2.40;1.10;;;;;;;9.93;41.63;100531.53;5097647;28;20078;-77
2022/04/18 06:17:04;;;;;;;2.78;1.00;;;;;;;10.00;41.04;100527.03;5097522;28;20120;-77
2022/04/18 06:19:29;;;;;;;2.90;1.10;;;;;;;10.08;42.02;100529.56;5095931;28;20496;-77
2022/04/18 06:21:55;;;;;;;2.73;1.00;;;;;;;10.20;41.50;100524.50;5097661;28;20030;-78
2022/04/18 06:24:20;;;;;;;2.38;1.00;;;;;;;10.27;41.40;100528.03;5097369;28;20073;-78
2022/04/18 06:26:45;;;;;;;2.90;0.93;;;;;;;10.21;41.74;100528.00;5097970;28;20067;-78
2022/04/18 06:29:11;;;;;;;3.80;1.37;;;;;;;10.46;41.19;100539.09;5096729;28;20028;-78
2022/04/18 06:31:36;;;;;;;2.97;1.17;;;;;;;10.50;41.04;100541.19;5097058;28;20038;-77
2022/04/18 06:34:01;;;;;;;2.47;0.90;;;;;;;10.58;40.92;100538.28;5096511;28;20286;-77
2022/04/18 06:36:27;;;;;;;3.00;1.03;;;;;;;10.78;40.36;100539.19;5095172;28;20086;-78
2022/04/18 06:38:52;;;;;;;3.37;1.00;;;;;;;10.66;40.80;100540.81;5095858;28;20024;-77
2022/04/18 06:41:17;;;;;;;2.37;0.80;;;;;;;10.81;39.87;100546.03;5096497;28;20107;-77
2022/04/18 06:43:42;;;;;;;2.33;0.90;;;;;;;10.89;40.51;100539.66;5097358;28;20028;-78
2022/04/18 06:46:08;;;;;;;2.70;0.90;;;;;;;11.10;39.38;100542.19;5097964;28;20099;-78
2022/04/18 06:48:33;;;;;;;2.50;0.87;;;;;;;11.29;39.16;100554.81;5095980;28;20038;-78
2022/04/18 06:50:59;;;;;;;2.97;0.77;;;;;;;11.48;38.40;100540.53;5096118;28;20032;-78
2022/04/18 06:53:24;;;;;;;9.27;1.42;;;;;;;11.66;38.02;100542.59;5096732;28;20377;-78
2022/04/18 06:58:33;;;;;;;2.00;0.98;;;;;;;13.07;36.23;100543.56;5096168;28;20043;-78
2022/04/18 07:00:58;;;;;;;2.23;0.90;;;;;;;13.74;34.27;100543.91;5096057;28;20032;-78
2022/04/18 07:03:26;;;;;;;4.07;1.03;;;;;;;13.62;33.74;100545.66;5096259;28;20386;-78
2022/04/18 07:05:51;;;;;;;2.65;1.08;;;;;;;12.88;35.31;100539.13;5096489;28;20056;-79
2022/04/18 07:08:16;;;;;;;3.40;0.93;;;;;;;12.65;34.83;100550.47;5096524;28;20470;-79
2022/04/18 07:10:41;;;;;;;3.60;1.07;;;;;;;12.16;36.28;100540.25;5097441;28;20071;-79
2022/04/18 07:13:07;;;;;;;3.43;1.03;;;;;;;12.50;35.98;100545.34;5095255;28;20028;-78
2022/04/18 07:15:32;;;;;;;2.10;0.80;;;;;;;12.16;36.27;100546.50;5096308;28;20039;-79
2022/04/18 07:17:58;;;;;;;2.53;0.90;;;;;;;12.40;36.12;100549.50;5097357;28;20111;-79
2022/04/18 07:20:23;;;;;;;3.20;1.13;;;;;;;12.58;35.83;100549.66;5097222;28;20463;-80
2022/04/18 07:22:52;;;;;;;2.60;0.95;;;;;;;12.38;35.91;100544.31;5100016;28;20510;-79
2022/04/18 07:25:17;;;;;;;2.53;0.90;;;;;;;12.32;36.44;100544.38;5100780;28;20027;-78
2022/04/18 07:27:44;;;;;;;2.90;1.30;;;;;;;12.27;36.81;100546.88;5101986;28;20043;-79
2022/04/18 07:30:10;;;;;;;2.78;1.00;;;;;;;12.59;35.78;100545.06;5106064;28;20265;-80
2022/04/18 07:32:42;;;;;;;2.28;0.85;;;;;;;12.71;35.12;100538.78;5110522;28;20058;-79
2022/04/18 07:35:09;;;;;;;2.63;1.00;;;;;;;12.64;35.33;100548.81;5103495;28;20039;-78
2022/04/18 07:37:35;;;;;;;3.53;1.10;;;;;;;12.77;35.35;100546.03;5102934;28;20032;-78
2022/04/18 07:40:00;;;;;;;2.88;1.20;;;;;;;12.93;35.25;100543.84;5096107;28;20031;-78
2022/04/18 07:42:26;;;;;;;2.27;0.90;;;;;;;12.97;35.91;100548.63;5095645;28;20032;-74
2022/04/18 07:44:51;;;;;;;2.63;1.00;;;;;;;13.13;35.38;100537.28;5094384;28;20278;-75
2022/04/18 07:47:16;;;;;;;3.27;1.40;;;;;;;13.25;35.35;100539.31;5094708;28;20043;-75
2022/04/18 07:49:42;;;;;;;6.33;1.63;;;;;;;13.32;34.32;100546.31;5093424;28;20379;-75
2022/04/18 07:52:08;;;;;;;3.70;1.13;;;;;;;13.44;34.58;100539.13;5094128;28;20093;-75
2022/04/18 07:54:35;;;;;;;3.05;1.13;;;;;;;13.67;33.82;100535.81;5094155;28;20115;-75
2022/04/18 07:57:00;;;;;;;;;;;;;;;13.48;34.14;100543.06;5094790;28;20106;-74
2022/04/18 07:59:25;;;;;;;2.13;0.90;;;;;;;13.42;34.65;100541.28;5094184;28;19908;-74
2022/04/18 08:01:50;;;;;;;2.50;0.90;;;;;;;13.16;34.38;100542.28;5094116;28;20034;-74
2022/04/18 08:04:16;;;;;;;3.93;0.90;;;;;;;13.06;34.31;100544.63;5094177;28;20032;-76
2022/04/18 08:06:41;;;;;;;2.70;0.90;;;;;;;13.22;34.41;100546.00;5094074;28;20020;-75
2022/04/18 08:09:06;;;;;;;2.97;0.77;;;;;;;13.30;34.62;100531.34;5094289;28;20447;-75
2022/04/18 08:11:32;;;;;;;4.77;1.13;;;;;;;13.68;34.62;100531.25;5093623;28;20078;-74
2022/04/18 08:13:57;;;;;;;3.30;1.20;;;;;;;13.89;34.07;100530.84;5093839;28;20028;-74
2022/04/18 08:16:22;;;;;;;2.47;1.10;;;;;;;14.09;33.83;100526.03;5093906;28;20030;-74
2022/04/18 08:18:48;;;;;;;2.88;1.08;;;;;;;13.89;33.65;100531.66;5093642;28;20122;-75
2022/04/18 08:21:17;;;;;;;3.50;1.52;;;;;;;13.94;34.76;100533.72;5093885;28;20107;-75
2022/04/18 08:23:43;;;;;;;12.00;1.40;;;;;;;14.25;34.38;100527.31;5094069;28;20028;-74
2022/04/18 08:26:09;;;;;;;3.40;1.25;;;;;;;14.27;33.56;100530.63;5093528;28;20055;-75
2022/04/18 08:28:34;;;;;;;3.57;1.23;;;;;;;14.14;33.50;100525.38;5093583;28;20040;-76
2022/04/18 08:31:00;;;;;;;3.03;1.05;;;;;;;14.09;33.59;100526.03;5093721;28;20089;-76
2022/04/18 08:33:28;;;;;;;2.60;1.00;;;;;;;14.07;33.61;100528.13;5093780;28;20044;-75
2022/04/18 08:35:53;;;;;;;3.13;1.00;;;;;;;13.95;33.42;100523.69;5093380;28;20028;-75
2022/04/18 08:38:18;;;;;;;2.93;1.00;;;;;;;14.20;34.21;100525.28;5094011;28;20028;-76
2022/04/18 08:40:48;;;;;;;3.30;1.30;;;;;;;14.25;34.59;100519.19;5093760;28;20024;-75
2022/04/18 08:43:13;;;;;;;2.88;1.00;;;;;;;14.24;33.97;100522.94;5093570;28;20028;-75
2022/04/18 08:45:39;;;;;;;2.67;1.25;;;;;;;14.40;33.95;100527.78;5093314;28;20035;-76
2022/04/18 08:53:34;;;;;;;3.13;1.13;;;;;;;14.58;32.22;100519.63;5093493;28;20051;-76
2022/04/18 08:56:00;;;;;;;4.70;1.17;;;;;;;14.79;32.35;100509.34;5093492;28;20032;-75
2022/04/18 08:58:26;;;;;;;4.43;1.58;;;;;;;14.71;32.25;100515.91;5093481;28;20039;-75
2022/04/18 09:00:53;;;;;;;2.13;0.90;;;;;;;14.79;30.71;100514.75;5096025;28;20027;-76
2022/04/18 09:03:19;;;;;;;2.90;1.13;;;;;;;14.60;30.55;100508.56;5096050;28;20061;-75
2022/04/18 09:05:44;;;;;;;3.40;1.20;;;;;;;14.67;30.63;100512.03;5097217;28;20116;-75
2022/04/18 09:08:10;;;;;;;3.65;0.82;;;;;;;14.87;31.44;100511.72;5096099;28;20028;-75
2022/04/18 09:10:36;;;;;;;2.65;1.00;;;;;;;14.90;30.60;100517.50;5097121;28;20134;-75
2022/04/18 09:13:13;;;;;;;4.70;1.20;;;;;;;15.10;31.31;100511.78;5097209;28;20036;-75
2022/04/18 09:15:40;;;;;;;;;;;;;;;14.93;30.09;100510.78;5097595;28;20036;-76
2022/04/18 09:18:11;;;;;;;2.72;1.08;;;;;;;14.74;31.16;100499.16;5097177;28;19998;-75
2022/04/18 09:21:01;;;;;;;4.35;1.05;;;;;;;14.74;31.63;100501.06;5095915;28;20039;-75
2022/04/18 09:23:31;;;;;;;2.83;1.08;;;;;;;14.84;31.83;100499.47;5096789;28;20024;-76
2022/04/18 09:26:08;;;;;;;3.40;1.17;;;;;;;15.10;30.04;100490.06;5099149;28;20103;-76
2022/04/18 09:28:36;;;;;;;3.58;1.20;;;;;;;15.10;30.32;100500.94;5117430;28;20031;-75
2022/04/18 09:31:13;;;;;;;2.60;0.90;;;;;;;15.29;29.25;100488.09;5117272;28;20500;-77
2022/04/18 09:33:38;;;;;;;3.15;0.80;;;;;;;15.61;28.26;100484.03;5117234;28;20382;-75
2022/04/18 09:36:16;;;;;;;3.00;1.20;;;;;;;15.58;28.21;100483.69;5117107;28;20031;-75
2022/04/18 09:38:55;;;;;;;3.22;1.30;;;;;;;15.72;28.79;100474.22;5116919;28;20045;-75
2022/04/18 09:41:24;;;;;;;3.10;1.00;;;;;;;15.93;28.55;100467.34;5117085;28;20366;-74
2022/04/18 09:43:52;;;;;;;3.40;1.35;;;;;;;16.22;28.71;100474.50;5117313;28;20032;-75
2022/04/18 09:46:18;;;;;;;2.78;1.10;;;;;;;16.15;28.09;100471.06;5117021;28;20040;-75
2022/04/18 09:48:45;;;;;;;4.70;0.90;;;;;;;16.25;27.51;100468.59;5117034;28;20509;-76
2022/04/18 09:51:28;;;;;;;4.18;1.17;;;;;;;16.22;28.72;100463.63;5117231;28;20059;-75
2022/04/18 09:53:57;;;;;;;3.15;0.85;;;;;;;16.41;28.66;100463.44;5117001;28;20122;-74
2022/04/18 09:56:24;;;;;;;2.80;1.10;;;;;;;16.39;26.54;100455.53;5117182;28;20024;-75
2022/04/18 09:58:50;;;;;;;3.17;1.13;;;;;;;16.44;27.00;100455.63;5116525;28;20807;-76
2022/04/18 10:01:19;;;;;;;2.97;1.10;;;;;;;16.30;26.28;100443.41;5116939;28;20069;-75
2022/04/18 10:03:46;;;;;;;3.65;1.13;;;;;;;16.35;26.01;100448.91;5116931;28;20028;-75
2022/04/18 10:06:12;;;;;;;2.40;1.00;;;;;;;16.23;27.72;100451.69;5116870;28;20034;-76
2022/04/18 10:08:37;;;;;;;2.15;0.88;;;;;;;16.32;28.24;100441.22;5116168;28;20031;-75
2022/04/18 10:11:07;;;;;;;2.45;1.00;;;;;;;16.52;27.39;100440.78;5116175;28;20035;-75
2022/04/18 10:13:35;;;;;;;2.20;1.10;;;;;;;16.55;26.79;100441.16;5115301;28;20492;-75
2022/04/18 10:16:00;;;;;;;2.85;1.10;;;;;;;16.90;27.37;100442.88;5116590;28;20097;-76
2022/04/18 10:18:27;;;;;;;2.88;0.90;;;;;;;16.98;25.39;100435.16;5116702;28;20466;-76
2022/04/18 10:21:08;;;;;;;3.00;0.90;;;;;;;16.79;25.45;100439.16;5116350;28;20028;-76
2022/04/18 10:23:53;;;;;;;3.28;1.00;;;;;;;16.84;25.29;100433.00;5116036;28;20417;-76
2022/04/18 10:27:13;;;;;;;2.65;1.20;;;;;;;17.05;26.02;100426.81;5097889;28;20043;-76
2022/04/18 10:29:45;;;;;;;2.90;0.98;;;;;;;17.13;25.79;100425.56;4997068;28;20092;-76
2022/04/18 10:32:18;;;;;;;2.30;0.88;;;;;;;16.83;25.68;100428.63;5099653;28;20091;-77
2022/04/18 10:34:48;;;;;;;2.53;1.00;;;;;;;16.69;26.03;100421.81;5116922;28;20088;-76
2022/04/18 10:37:15;;;;;;;3.25;1.00;;;;;;;16.54;26.28;100414.19;5116100;28;20031;-77
2022/04/18 10:39:41;;;;;;;7.55;1.27;;;;;;;16.87;26.42;100421.59;5115930;28;20522;-77
2022/04/18 10:42:23;;;;;;;2.53;0.95;;;;;;;16.84;28.02;100420.19;5098507;28;20107;-76
2022/04/18 10:45:01;;;;;;;2.95;0.80;;;;;;;16.74;27.22;100416.47;5111255;28;20045;-75
2022/04/18 10:48:08;;;;;;;2.13;0.90;;;;;;;17.10;26.05;100412.44;5115767;28;20028;-80
2022/04/18 10:50:44;;;;;;;2.95;1.10;;;;;;;17.05;25.73;100407.75;5101819;28;20040;-74
2022/04/18 10:53:19;;;;;;;2.75;0.95;;;;;;;16.96;26.11;100407.34;5115381;28;20378;-75
2022/04/18 10:55:50;;;;;;;2.97;1.00;;;;;;;17.12;26.08;100402.16;5115763;28;20124;-76
2022/04/18 10:58:20;;;;;;;2.58;1.00;;;;;;;17.43;26.44;100396.06;5115541;28;20493;-76
2022/04/18 11:00:49;;;;;;;2.10;0.90;;;;;;;17.25;25.54;100399.91;5115768;28;20032;-75
2022/04/18 11:03:35;;;;;;;2.35;0.80;;;;;;;17.29;24.41;100402.97;5115990;28;20063;-75
2022/04/18 11:06:21;;;;;;;2.47;0.88;;;;;;;17.64;24.26;100402.69;5115087;28;20024;-76
2022/04/18 11:09:19;;;;;;;2.88;1.00;;;;;;;17.61;24.37;100392.25;5100820;28;20035;-75
2022/04/18 11:11:45;;;;;;;2.90;0.90;;;;;;;17.61;24.80;100390.34;5115357;28;20031;-75
2022/04/18 11:14:16;;;;;;;2.55;0.95;;;;;;;17.75;25.55;100385.38;5115076;28;20023;-75
2022/04/18 11:16:44;;;;;;;2.80;1.10;;;;;;;17.81;24.74;100394.44;5114935;28;20405;-75
2022/04/18 11:19:18;;;;;;;2.83;1.00;;;;;;;17.79;24.88;100380.25;5114960;28;20042;-76
2022/04/18 11:22:04;;;;;;;2.65;1.00;;;;;;;18.00;26.61;100384.88;5115138;28;20063;-76
2022/04/18 11:24:36;;;;;;;2.80;0.90;;;;;;;17.97;25.48;100378.03;5115012;28;20114;-75
2022/04/18 11:27:03;;;;;;;3.47;1.50;;;;;;;17.98;25.64;100376.13;5096626;28;20040;-75
2022/04/18 11:29:32;;;;;;;3.08;1.20;;;;;;;18.12;25.68;100380.09;5096729;28;20125;-75
2022/04/18 11:31:58;;;;;;;2.80;1.10;;;;;;;18.25;24.80;100374.25;5114874;28;20032;-76
2022/04/18 11:34:27;;;;;;;;;;;;;;;18.21;24.06;100373.13;5115259;28;20371;-75
2022/04/18 11:36:56;;;;;;;2.55;1.00;;;;;;;18.31;24.47;100372.41;5114686;28;19951;-77
2022/04/18 11:39:21;;;;;;;2.83;0.93;;;;;;;18.29;24.51;100364.47;5114849;28;20059;-76
2022/04/18 11:41:47;;;;;;;;;;;;;;;18.30;24.70;100359.84;5115175;28;20460;-77
2022/04/18 11:44:25;;;;;;;2.88;1.08;;;;;;;18.58;24.42;100358.75;5114780;28;20328;-76
2022/04/18 11:46:50;;;;;;;3.42;1.17;;;;;;;18.79;23.68;100360.63;5096272;28;20434;-77
2022/04/18 11:49:24;;;;;;;;;;;;;;;18.52;24.35;100360.59;5115056;28;20030;-76